.
WxDataArchive / Data Records for 2016-03-06
2016-03-05 March 2016 2016-03-07

Data Records for Sunday, 06 March 2016

Time	Temp	Chill	HIndex	Humid	Dewpt	 Wind 	HiWind	WindDir	Rain 	Barom
-----	----	-----	------	-----	-----	------	------	-------	-----	-----
00:00	33.7	33.7	33.7	83	29.1	0	0	---	0.00	30.253 
00:05	33.7	33.7	33.7	83	29.1	0	0	---	0.00	30.253 
00:10	33.7	33.7	33.7	82	28.8	0	1	315	0.00	30.253 
00:15	33.5	33.5	33.5	82	28.6	0	0	---	0.00	30.249 
00:20	33.5	33.5	33.5	82	28.6	0	0	---	0.00	30.249 
00:25	33.5	33.5	33.5	82	28.6	0	1	315	0.00	30.249 
00:30	33.5	33.5	33.5	81	28.3	0	1	315	0.00	30.251 
00:35	33.5	33.5	33.5	81	28.3	0	0	---	0.00	30.251 
00:40	33.5	33.5	33.5	81	28.3	0	1	315	0.00	30.251 
00:45	33.5	33.5	33.5	81	28.3	0	1	315	0.00	30.253 
00:50	33.5	33.5	33.5	80	28.0	0	0	---	0.00	30.253 
00:55	33.4	33.4	33.4	81	28.2	0	0	---	0.00	30.253 
01:00	33.4	33.4	33.4	80	27.9	0	0	---	0.00	30.253 
01:05	33.4	33.4	33.4	80	27.9	0	0	---	0.00	30.253 
01:10	33.4	33.4	33.4	80	27.9	0	0	---	0.00	30.253 
01:15	33.4	33.4	33.4	80	27.9	0	0	---	0.00	30.254 
01:20	33.4	33.4	33.4	81	28.2	0	0	---	0.00	30.254 
01:25	33.4	33.4	33.4	81	28.2	0	0	---	0.00	30.254 
01:30	33.4	33.4	33.4	81	28.2	0	1	315	0.00	30.256 
01:35	33.4	33.4	33.4	81	28.2	0	1	315	0.00	30.256 
01:40	33.4	33.4	33.4	81	28.2	0	0	---	0.00	30.256 
01:45	33.4	33.4	33.4	81	28.2	0	0	---	0.00	30.262 
01:50	33.4	33.4	33.4	81	28.2	0	1	315	0.00	30.262 
01:55	33.4	33.4	33.4	81	28.2	0	1	315	0.00	30.262 
02:00	33.4	33.4	33.4	81	28.2	0	0	---	0.00	30.269 
02:05	33.4	33.4	33.4	81	28.2	0	0	---	0.00	30.269 
02:10	33.4	33.4	33.4	81	28.2	0	0	---	0.00	30.269 
02:15	33.4	33.4	33.4	81	28.2	0	2	315	0.00	30.268 
02:20	33.2	33.2	33.2	82	28.3	0	0	---	0.00	30.268 
02:25	33.2	33.2	33.2	82	28.3	0	1	315	0.00	30.268 
02:30	33.2	33.2	33.2	82	28.3	0	0	---	0.00	30.269 
02:35	33.2	33.2	33.2	82	28.3	0	1	315	0.00	30.269 
02:40	33.1	33.1	33.1	82	28.2	0	0	---	0.00	30.269 
02:45	33.1	33.1	33.1	82	28.2	0	1	315	0.00	30.269 
02:50	33.1	33.1	33.1	82	28.2	0	1	315	0.00	30.269 
02:55	33.1	33.1	33.1	81	27.9	0	1	315	0.00	30.269 
03:00	32.9	32.9	32.9	81	27.7	0	0	---	0.00	30.267 
03:05	32.9	32.9	32.9	81	27.7	0	1	315	0.00	30.267 
03:10	32.9	32.9	32.9	81	27.7	0	0	---	0.00	30.267 
03:15	32.9	32.9	32.9	81	27.7	0	0	---	0.00	30.270 
03:20	32.9	32.9	32.9	81	27.7	0	1	315	0.00	30.270 
03:25	32.9	32.9	32.9	81	27.7	0	0	---	0.00	30.270 
03:30	32.9	32.9	32.9	81	27.7	0	0	---	0.00	30.271 
03:35	32.9	32.9	32.9	81	27.7	0	0	---	0.00	30.271 
03:40	32.9	32.9	32.9	81	27.7	0	0	---	0.00	30.271 
03:45	32.9	32.9	32.9	81	27.7	0	0	---	0.00	30.272 
03:50	32.8	32.8	32.8	81	27.6	0	0	---	0.00	30.272 
03:55	32.8	32.8	32.8	81	27.6	0	0	---	0.00	30.272 
04:00	32.8	32.8	32.8	81	27.6	0	0	---	0.00	30.268 
04:05	32.9	32.9	32.9	82	28.0	0	0	---	0.00	30.268 
04:10	32.9	32.9	32.9	82	28.0	0	0	---	0.00	30.268 
04:15	32.8	32.8	32.8	82	27.9	0	0	---	0.00	30.263 
04:20	32.8	32.8	32.8	82	27.9	0	0	---	0.00	30.263 
04:25	32.8	32.8	32.8	82	27.9	0	2	315	0.00	30.263 
04:30	32.8	32.8	32.8	82	27.9	0	0	---	0.00	30.259 
04:35	32.8	32.8	32.8	82	27.9	0	0	---	0.00	30.259 
04:40	32.8	32.8	32.8	82	27.9	0	0	---	0.00	30.259 
04:45	32.7	32.7	32.7	82	27.8	0	0	---	0.00	30.269 
04:50	32.7	32.7	32.7	82	27.8	0	0	---	0.00	30.269 
04:55	32.7	32.7	32.7	82	27.8	0	0	---	0.00	30.269 
05:00	32.7	32.7	32.7	82	27.8	0	0	---	0.00	30.270 
05:05	32.7	32.7	32.7	82	27.8	0	0	---	0.00	30.270 
05:10	32.7	32.7	32.7	82	27.8	0	0	---	0.00	30.270 
05:15	32.7	32.7	32.7	82	27.8	0	1	315	0.00	30.271 
05:20	32.7	32.7	32.7	82	27.8	0	0	---	0.00	30.271 
05:25	32.7	32.7	32.7	82	27.8	0	0	---	0.00	30.271 
05:30	32.7	32.7	32.7	82	27.8	0	1	315	0.00	30.275 
05:35	32.7	32.7	32.7	82	27.8	0	2	315	0.00	30.275 
05:40	32.7	32.7	32.7	82	27.8	0	0	---	0.00	30.275 
05:45	32.8	32.8	32.8	82	27.9	0	0	---	0.00	30.281 
05:50	32.7	32.7	32.7	83	28.1	0	0	---	0.00	30.281 
05:55	32.7	32.7	32.7	83	28.1	0	0	---	0.00	30.281 
06:00	32.7	32.7	32.7	83	28.1	0	0	---	0.00	30.287 
06:05	32.7	32.7	32.7	83	28.1	0	0	---	0.00	30.287 
06:10	32.7	32.7	32.7	83	28.1	0	0	---	0.00	30.287 
06:15	32.7	32.7	32.7	83	28.1	0	0	---	0.00	30.287 
06:20	32.7	32.7	32.7	83	28.1	0	0	---	0.00	30.287 
06:25	32.7	32.7	32.7	83	28.1	0	0	---	0.00	30.287 
06:30	32.7	32.7	32.7	83	28.1	0	0	---	0.00	30.292 
06:35	32.7	32.7	32.7	83	28.1	0	0	---	0.00	30.292 
06:40	32.7	32.7	32.7	83	28.1	0	0	---	0.00	30.292 
06:45	32.7	32.7	32.7	83	28.1	0	0	---	0.00	30.300 
06:50	32.7	32.7	32.7	83	28.1	0	1	315	0.00	30.300 
06:55	32.7	32.7	32.7	82	27.8	0	0	---	0.00	30.300 
07:00	32.7	32.7	32.7	82	27.8	0	0	---	0.00	30.298 
07:05	32.7	32.7	32.7	82	27.8	0	1	315	0.00	30.298 
07:10	32.7	32.7	32.7	82	27.8	0	1	315	0.00	30.298 
07:15	32.7	32.7	32.7	82	27.8	0	0	---	0.00	30.292 
07:20	32.7	32.7	32.7	82	27.8	0	0	---	0.00	30.292 
07:25	32.7	32.7	32.7	82	27.8	0	0	---	0.00	30.292 
07:30	32.7	32.7	32.7	82	27.8	0	1	315	0.00	30.291 
07:35	32.7	32.7	32.7	82	27.8	0	1	315	0.00	30.291 
07:40	32.7	32.7	32.7	82	27.8	0	1	315	0.00	30.291 
07:45	32.7	32.7	32.7	83	28.1	0	0	---	0.00	30.291 
07:50	32.7	32.7	32.7	83	28.1	0	2	315	0.00	30.291 
07:55	32.7	32.7	32.7	83	28.1	0	1	315	0.00	30.291 
08:00	32.7	32.7	32.7	83	28.1	0	0	---	0.00	30.293 
08:05	32.7	32.7	32.7	83	28.1	0	2	315	0.00	30.293 
08:10	32.7	32.7	32.7	82	27.8	0	4	68	0.00	30.293 
08:15	32.8	32.8	32.8	82	27.9	0	2	68	0.00	30.299 
08:20	32.8	32.8	32.8	81	27.6	0	0	---	0.00	30.299 
08:25	32.8	32.8	32.8	82	27.9	0	0	---	0.00	30.299 
08:30	32.9	32.9	32.9	81	27.7	0	0	---	0.00	30.301 
08:35	32.9	32.9	32.9	81	27.7	0	1	68	0.00	30.301 
08:40	33.1	33.1	33.1	81	27.9	0	2	68	0.00	30.301 
08:45	33.1	33.1	33.1	81	27.9	0	1	68	0.00	30.302 
08:50	33.2	33.2	33.2	81	28.0	0	1	68	0.00	30.302 
08:55	33.2	33.2	33.2	81	28.0	0	3	68	0.00	30.302 
09:00	33.2	33.2	33.2	80	27.7	0	3	68	0.00	30.297 
09:05	33.4	33.4	33.4	81	28.2	0	2	68	0.00	30.297 
09:10	33.4	33.4	33.4	81	28.2	0	2	68	0.00	30.297 
09:15	33.5	33.5	33.5	81	28.3	0	2	68	0.00	30.289 
09:20	33.5	33.5	33.5	80	28.0	0	1	68	0.00	30.289 
09:25	33.5	33.5	33.5	80	28.0	0	2	68	0.00	30.289 
09:30	33.5	33.5	33.5	80	28.0	0	1	68	0.00	30.298 
09:35	33.7	33.7	33.7	80	28.2	0	1	68	0.00	30.298 
09:40	33.7	33.7	33.7	79	27.9	0	1	68	0.00	30.298 
09:45	33.8	33.8	33.8	80	28.3	0	1	68	0.00	30.295 
09:50	34.0	34.0	34.0	79	28.2	0	2	68	0.00	30.295 
09:55	34.1	34.1	34.1	79	28.3	0	4	68	0.00	30.295 
10:00	34.1	34.1	34.1	78	28.0	1	4	68	0.00	30.288 
10:05	34.1	34.1	34.1	78	28.0	1	5	68	0.00	30.288 
10:10	34.3	34.3	34.3	78	28.2	1	3	90	0.00	30.288 
10:15	34.4	34.4	34.4	78	28.3	0	2	90	0.00	30.287 
10:20	34.4	34.4	34.4	78	28.3	1	3	90	0.00	30.287 
10:25	34.7	34.7	34.7	78	28.6	0	4	45	0.00	30.287 
10:30	34.9	34.9	34.9	77	28.4	0	1	68	0.00	30.277 
10:35	35.0	35.0	35.0	77	28.5	0	2	68	0.00	30.277 
10:40	35.2	35.2	35.2	77	28.7	1	3	68	0.00	30.277 
10:45	35.3	35.3	35.3	77	28.8	1	3	90	0.00	30.271 
10:50	35.5	35.5	35.5	76	28.7	1	3	90	0.00	30.271 
10:55	35.6	35.6	35.6	76	28.8	1	3	112	0.00	30.271 
11:00	35.8	35.8	35.8	77	29.3	1	3	112	0.00	30.269 
11:05	35.8	35.8	35.8	77	29.3	1	4	112	0.00	30.269 
11:10	35.8	35.8	35.8	77	29.3	1	3	112	0.00	30.269 
11:15	35.8	35.8	35.8	77	29.3	1	4	90	0.00	30.264 
11:20	35.9	35.9	35.9	76	29.1	1	3	90	0.00	30.264 
11:25	35.9	35.9	35.9	76	29.1	1	5	112	0.00	30.264 
11:30	36.0	36.0	36.0	76	29.2	1	4	22	0.00	30.268 
11:35	36.0	36.0	36.0	76	29.2	2	4	68	0.00	30.268 
11:40	36.2	36.2	36.2	76	29.4	2	7	90	0.00	30.268 
11:45	36.2	36.2	36.2	76	29.4	1	4	112	0.00	30.261 
11:50	36.5	36.5	36.5	77	30.0	0	2	112	0.00	30.261 
11:55	36.5	36.5	36.5	75	29.3	2	6	90	0.00	30.261 
12:00	36.6	36.6	36.6	76	29.8	1	5	90	0.00	30.256 
12:05	36.8	36.8	36.8	77	30.3	0	2	90	0.00	30.256 
12:10	36.9	36.9	36.9	76	30.1	1	3	90	0.00	30.256 
12:15	36.9	36.9	36.9	76	30.1	1	5	90	0.00	30.251 
12:20	37.0	37.0	37.0	77	30.5	1	3	90	0.00	30.251 
12:25	37.3	37.3	37.3	76	30.4	0	3	112	0.00	30.251 
12:30	37.6	37.6	37.6	76	30.7	1	4	112	0.00	30.247 
12:35	37.8	37.8	37.8	75	30.6	1	3	112	0.00	30.247 
12:40	37.9	37.9	37.9	76	31.0	1	3	68	0.00	30.247 
12:45	37.9	37.9	37.9	75	30.7	2	6	90	0.00	30.247 
12:50	37.8	37.8	37.8	75	30.6	2	6	90	0.00	30.247 
12:55	37.9	37.9	37.9	76	31.0	1	4	90	0.00	30.247 
13:00	38.0	38.0	38.0	76	31.1	1	4	90	0.00	30.240 
13:05	38.2	38.2	38.2	74	30.7	1	4	90	0.00	30.240 
13:10	38.3	38.3	38.3	75	31.1	2	6	90	0.00	30.240 
13:15	38.6	38.6	38.6	75	31.4	1	3	90	0.00	30.230 
13:20	38.9	38.9	38.9	74	31.3	1	3	68	0.00	30.230 
13:25	39.1	39.1	39.1	72	30.8	1	3	68	0.00	30.230 
13:30	39.5	39.5	39.5	73	31.6	1	4	68	0.00	30.220 
13:35	39.8	39.8	39.8	73	31.9	1	3	90	0.00	30.220 
13:40	39.9	39.9	39.9	72	31.6	1	4	90	0.00	30.220 
13:45	40.6	40.6	40.6	73	32.6	1	4	90	0.00	30.200 
13:50	40.9	40.9	40.9	70	31.9	1	6	68	0.00	30.200 
13:55	41.1	41.1	41.1	71	32.4	1	5	68	0.00	30.200 
14:00	41.1	41.1	41.1	72	32.8	2	9	90	0.00	30.189 
14:05	41.1	41.1	41.1	68	31.4	3	9	90	0.00	30.189 
14:10	41.2	41.2	41.2	70	32.2	1	5	112	0.00	30.189 
14:15	41.3	41.3	41.3	69	31.9	2	6	112	0.00	30.183 
14:20	41.3	41.3	41.3	70	32.3	2	7	90	0.00	30.183 
14:25	41.6	41.6	41.6	71	32.9	0	2	90	0.00	30.183 
14:30	42.1	42.1	42.1	71	33.4	1	6	90	0.00	30.175 
14:35	42.5	42.5	42.5	68	32.7	2	6	90	0.00	30.175 
14:40	42.9	42.9	42.9	69	33.4	1	2	90	0.00	30.175 
14:45	43.8	43.8	43.8	69	34.3	1	5	90	0.00	30.170 
14:50	43.8	43.8	43.8	67	33.6	1	4	112	0.00	30.170 
14:55	44.1	44.1	44.1	68	34.2	1	5	112	0.00	30.170 
15:00	44.2	44.2	44.2	68	34.3	0	3	112	0.00	30.169 
15:05	44.6	44.6	44.6	67	34.3	1	4	112	0.00	30.169 
15:10	44.6	44.6	44.6	66	34.0	2	7	90	0.00	30.169 
15:15	44.5	44.5	44.5	67	34.2	2	5	90	0.00	30.154 
15:20	44.3	44.3	44.3	66	33.7	2	7	90	0.00	30.154 
15:25	44.3	44.3	44.3	69	34.8	1	5	112	0.00	30.154 
15:30	44.3	44.3	44.3	68	34.4	1	4	112	0.00	30.151 
15:35	44.5	44.5	44.5	69	35.0	1	4	112	0.00	30.151 
15:40	44.6	44.6	44.6	69	35.1	0	2	112	0.00	30.151 
15:45	44.9	44.9	44.9	68	35.0	1	3	90	0.00	30.142 
15:50	44.9	44.9	44.9	68	35.0	1	5	90	0.00	30.142 
15:55	44.8	44.8	44.8	68	34.9	2	4	90	0.00	30.142 
16:00	44.9	44.9	44.9	69	35.4	0	2	112	0.00	30.133 
16:05	45.1	45.1	45.1	69	35.5	1	4	0	0.00	30.133 
16:10	45.2	45.2	45.2	68	35.3	2	7	90	0.00	30.133 
16:15	45.5	45.5	45.5	68	35.6	2	5	90	0.00	30.121 
16:20	45.5	45.5	45.5	69	35.9	1	3	90	0.00	30.121 
16:25	45.7	45.7	45.7	69	36.1	1	6	90	0.00	30.121 
16:30	46.0	46.0	46.0	69	36.4	1	5	90	0.00	30.116 
16:35	46.1	46.1	46.1	69	36.5	2	6	90	0.00	30.116 
16:40	46.1	46.1	46.1	68	36.1	2	6	68	0.00	30.116 
16:45	46.0	46.0	46.0	68	36.0	2	5	112	0.00	30.105 
16:50	46.0	46.0	46.0	69	36.4	1	4	68	0.00	30.105 
16:55	45.8	45.8	45.8	69	36.2	1	3	90	0.00	30.105 
17:00	45.8	45.8	45.8	70	36.6	1	4	90	0.00	30.105 
17:05	46.1	46.1	46.1	69	36.5	1	4	90	0.00	30.105 
17:10	46.2	46.2	46.2	68	36.2	2	6	90	0.00	30.105 
17:15	46.2	46.2	46.2	68	36.2	1	5	90	0.00	30.105 
17:20	46.1	46.1	46.1	69	36.5	1	6	90	0.00	30.105 
17:25	46.0	46.0	46.0	69	36.4	1	5	112	0.00	30.105 
17:30	45.7	45.7	45.7	69	36.1	1	3	112	0.00	30.093 
17:35	45.7	45.7	45.7	69	36.1	1	3	90	0.00	30.093 
17:40	45.5	45.5	45.5	69	35.9	2	5	68	0.00	30.093 
17:45	45.7	45.7	45.7	69	36.1	1	4	68	0.00	30.088 
17:50	45.7	45.7	45.7	69	36.1	1	4	135	0.00	30.088 
17:55	45.7	45.7	45.7	69	36.1	1	3	112	0.00	30.088 
18:00	45.7	45.7	45.7	69	36.1	1	3	112	0.00	30.074 
18:05	45.7	45.7	45.7	69	36.1	0	2	112	0.00	30.074 
18:10	45.5	45.5	45.5	70	36.3	0	1	112	0.00	30.074 
18:15	45.4	45.4	45.4	70	36.2	0	1	112	0.00	30.084 
18:20	45.2	45.2	45.2	71	36.4	0	2	112	0.00	30.084 
18:25	45.1	45.1	45.1	72	36.6	0	1	112	0.00	30.084 
18:30	44.9	44.9	44.9	72	36.4	0	1	112	0.00	30.085 
18:35	44.6	44.6	44.6	72	36.1	0	1	112	0.00	30.085 
18:40	44.6	44.6	44.6	72	36.1	1	3	112	0.00	30.085 
18:45	44.8	44.8	44.8	71	36.0	1	4	135	0.00	30.073 
18:50	44.9	44.9	44.9	71	36.1	1	3	135	0.00	30.073 
18:55	45.1	45.1	45.1	70	35.9	1	5	90	0.00	30.073 
19:00	45.2	45.2	45.2	70	36.0	1	4	90	0.00	30.064 
19:05	45.1	45.1	45.1	70	35.9	0	2	0	0.00	30.064 
19:10	45.1	45.1	45.1	70	35.9	1	3	22	0.00	30.064 
19:15	45.1	45.1	45.1	69	35.5	0	2	22	0.00	30.058 
19:20	45.1	45.1	45.1	70	35.9	1	4	45	0.00	30.058 
19:25	45.2	45.2	45.2	69	35.6	1	4	68	0.00	30.058 
19:30	45.2	45.2	45.2	69	35.6	1	3	68	0.00	30.057 
19:35	45.1	45.1	45.1	70	35.9	0	1	68	0.00	30.057 
19:40	44.9	44.9	44.9	70	35.7	0	1	68	0.00	30.057 
19:45	44.8	44.8	44.8	71	36.0	0	3	68	0.00	30.060 
19:50	44.6	44.6	44.6	71	35.8	0	1	68	0.00	30.060 
19:55	44.5	44.5	44.5	72	36.0	0	1	68	0.00	30.060 
20:00	44.3	44.3	44.3	72	35.9	0	1	68	0.00	30.067 
20:05	44.3	44.3	44.3	72	35.9	0	3	68	0.00	30.067 
20:10	44.3	44.3	44.3	72	35.9	0	1	68	0.00	30.067 
20:15	44.3	44.3	44.3	72	35.9	0	2	68	0.00	30.065 
20:20	44.2	44.2	44.2	72	35.8	0	2	68	0.00	30.065 
20:25	44.2	44.2	44.2	72	35.8	0	1	68	0.00	30.065 
20:30	44.1	44.1	44.1	73	36.0	0	2	68	0.00	30.059 
20:35	44.1	44.1	44.1	72	35.7	0	2	68	0.00	30.059 
20:40	44.2	44.2	44.2	71	35.4	0	2	68	0.00	30.059 
20:45	44.3	44.3	44.3	71	35.5	0	2	68	0.00	30.058 
20:50	44.5	44.5	44.5	71	35.7	1	2	68	0.00	30.058 
20:55	44.5	44.5	44.5	70	35.3	1	2	68	0.00	30.058 
21:00	44.5	44.5	44.5	70	35.3	0	2	68	0.00	30.051 
21:05	44.5	44.5	44.5	70	35.3	0	2	68	0.00	30.051 
21:10	44.3	44.3	44.3	70	35.1	1	3	68	0.00	30.051 
21:15	44.2	44.2	44.2	70	35.0	0	4	90	0.00	30.051 
21:20	44.1	44.1	44.1	71	35.3	0	1	90	0.00	30.051 
21:25	43.9	43.9	43.9	71	35.1	0	2	90	0.00	30.051 
21:30	43.8	43.8	43.8	72	35.4	1	5	90	0.00	30.056 
21:35	43.6	43.6	43.6	72	35.2	0	3	90	0.00	30.056 
21:40	43.5	43.5	43.5	73	35.4	1	2	90	0.00	30.056 
21:45	43.3	43.3	43.3	73	35.2	0	1	90	0.00	30.053 
21:50	43.1	43.1	43.1	74	35.4	0	3	90	0.00	30.053 
21:55	42.8	42.8	42.8	74	35.1	0	1	90	0.00	30.053 
22:00	42.5	42.5	42.5	75	35.1	0	0	---	0.00	30.065 
22:05	42.2	42.2	42.2	75	34.9	0	0	---	0.00	30.065 
22:10	41.8	41.8	41.8	77	35.1	0	0	---	0.00	30.065 
22:15	41.6	41.6	41.6	77	34.9	0	2	90	0.00	30.056 
22:20	41.6	41.6	41.6	77	34.9	0	1	90	0.00	30.056 
22:25	41.5	41.5	41.5	78	35.2	0	2	90	0.00	30.056 
22:30	41.6	41.6	41.6	78	35.3	0	1	90	0.00	30.046 
22:35	41.6	41.6	41.6	78	35.3	0	2	90	0.00	30.046 
22:40	41.6	41.6	41.6	78	35.3	0	1	90	0.00	30.046 
22:45	41.6	41.6	41.6	78	35.3	0	2	90	0.00	30.041 
22:50	41.6	41.6	41.6	78	35.3	0	1	90	0.00	30.041 
22:55	41.3	41.3	41.3	78	35.0	0	0	---	0.00	30.041 
23:00	41.2	41.2	41.2	78	34.9	0	1	90	0.00	30.036 
23:05	41.2	41.2	41.2	78	34.9	0	1	90	0.00	30.036 
23:10	41.2	41.2	41.2	78	34.9	0	1	90	0.00	30.036 
23:15	41.2	41.2	41.2	78	34.9	0	0	---	0.00	30.035 
23:20	41.1	41.1	41.1	78	34.8	0	3	90	0.00	30.035 
23:25	41.2	41.2	41.2	78	34.9	0	2	90	0.00	30.035 
23:30	41.3	41.3	41.3	78	35.0	0	3	90	0.00	30.032 
23:35	41.5	41.5	41.5	78	35.2	0	1	90	0.00	30.032 
23:40	41.6	41.6	41.6	77	34.9	0	1	68	0.00	30.032 
23:45	41.6	41.6	41.6	77	34.9	0	1	68	0.00	30.040 
23:50	41.5	41.5	41.5	77	34.8	0	1	68	0.00	30.040 
23:55	41.5	41.5	41.5	77	34.8	0	2	68	0.00	30.040 

CoCoRaHS
IN-AL-39
A2 Web Hosting
Creative Commons License
GoDaddy
search engine by freefind advanced

loaded 2018-11-16 23:18:27 • last modified 2010-11-18 10:43:29
Privacy PolicyDisclaimer
• wx.awcolley.com is powered by PmWiki v.2002016 •
• all content (unless otherwise noted) © 2018 A W Colley